createdAt,value
2016-12-22T00:00:17.571Z,974.89
2016-12-22T00:01:26.268Z,974.93
2016-12-22T00:02:34.972Z,974.93
2016-12-22T00:03:43.668Z,974.94
2016-12-22T00:04:52.363Z,974.95
2016-12-22T00:06:01.064Z,975
2016-12-22T00:07:09.764Z,974.89
2016-12-22T00:08:18.461Z,974.86
2016-12-22T00:09:27.157Z,974.95
2016-12-22T00:10:35.883Z,974.94
2016-12-22T00:11:44.585Z,974.98
2016-12-22T00:12:53.313Z,974.84
2016-12-22T00:14:02.010Z,974.88
2016-12-22T00:15:10.714Z,974.89
2016-12-22T00:16:19.410Z,974.91
2016-12-22T00:17:28.137Z,974.89
2016-12-22T00:18:36.828Z,974.84
2016-12-22T00:19:45.522Z,974.93
2016-12-22T00:20:54.218Z,974.99
2016-12-22T00:22:02.915Z,974.93
2016-12-22T00:23:11.612Z,974.95
2016-12-22T00:24:20.320Z,975
2016-12-22T00:25:29.012Z,974.98
2016-12-22T00:26:37.710Z,974.96
2016-12-22T00:27:46.410Z,974.96
2016-12-22T00:28:55.110Z,974.91
2016-12-22T00:30:03.807Z,974.92
2016-12-22T00:31:12.507Z,974.95
2016-12-22T00:32:21.208Z,974.94
2016-12-22T00:33:29.904Z,974.9
2016-12-22T00:34:38.599Z,974.91
2016-12-22T00:35:47.291Z,974.94
2016-12-22T00:36:56.024Z,974.95
2016-12-22T00:38:04.720Z,974.93
2016-12-22T00:39:13.418Z,975.04
2016-12-22T00:40:22.120Z,974.97
2016-12-22T00:41:30.821Z,975.03
2016-12-22T00:42:39.566Z,975.12
2016-12-22T00:43:48.265Z,975.15
2016-12-22T00:44:56.963Z,975.21
2016-12-22T00:46:05.660Z,975.21
2016-12-22T00:47:14.353Z,975.14
2016-12-22T00:48:23.371Z,975.16
2016-12-22T00:49:32.068Z,975.17
2016-12-22T00:50:40.763Z,975.22
2016-12-22T00:51:49.461Z,975.28
2016-12-22T00:52:58.182Z,975.3
2016-12-22T00:54:06.880Z,975.36
2016-12-22T00:55:15.573Z,975.41
2016-12-22T00:56:24.275Z,975.42
2016-12-22T00:57:32.972Z,975.43
2016-12-22T00:58:41.668Z,975.43
2016-12-22T00:59:50.375Z,975.48
2016-12-22T01:00:59.069Z,975.47
2016-12-22T01:02:07.768Z,975.49
2016-12-22T01:03:16.468Z,975.47
2016-12-22T01:04:25.190Z,975.47
2016-12-22T01:05:33.887Z,975.44
2016-12-22T01:06:42.593Z,975.49
2016-12-22T01:07:51.287Z,975.47
2016-12-22T01:08:59.983Z,975.49
2016-12-22T01:10:08.687Z,975.48
2016-12-22T01:11:17.385Z,975.48
2016-12-22T01:12:26.087Z,975.53
2016-12-22T01:13:34.783Z,975.51
2016-12-22T01:14:43.480Z,975.5
2016-12-22T01:15:52.181Z,975.58
2016-12-22T01:17:00.892Z,975.57
2016-12-22T01:18:09.593Z,975.58
2016-12-22T01:19:18.286Z,975.56
2016-12-22T01:20:26.984Z,975.56
2016-12-22T01:21:35.679Z,975.57
2016-12-22T01:22:44.370Z,975.5
2016-12-22T01:23:53.088Z,975.46
2016-12-22T01:25:01.791Z,975.45
2016-12-22T01:26:10.484Z,975.5
2016-12-22T01:27:19.179Z,975.53
2016-12-22T01:28:27.873Z,975.55
2016-12-22T01:29:36.568Z,975.5
2016-12-22T01:30:45.263Z,975.56
2016-12-22T01:31:53.959Z,975.52
2016-12-22T01:33:02.661Z,975.5
2016-12-22T01:34:11.391Z,975.5
2016-12-22T01:35:20.087Z,975.55
2016-12-22T01:36:28.795Z,975.55
2016-12-22T01:37:37.489Z,975.56
2016-12-22T01:38:46.222Z,975.56
2016-12-22T01:39:54.947Z,975.59
2016-12-22T01:41:03.645Z,975.51
2016-12-22T01:42:12.340Z,975.53
2016-12-22T01:43:21.039Z,975.56
2016-12-22T01:44:30.046Z,975.64
2016-12-22T01:45:38.743Z,975.61
2016-12-22T01:46:47.440Z,975.64
2016-12-22T01:47:56.142Z,975.65
2016-12-22T01:49:04.840Z,975.65
2016-12-22T01:50:13.534Z,975.61
2016-12-22T01:51:22.228Z,975.61
2016-12-22T01:52:30.922Z,975.64
2016-12-22T01:53:39.617Z,975.68
2016-12-22T01:54:48.308Z,975.66
2016-12-22T01:55:57.006Z,975.63
2016-12-22T01:57:05.701Z,975.62
2016-12-22T01:58:14.396Z,975.56
2016-12-22T01:59:23.092Z,975.63
2016-12-22T02:00:31.786Z,975.66
2016-12-22T02:01:40.482Z,975.63
2016-12-22T02:02:49.219Z,975.59
2016-12-22T02:03:57.912Z,975.56
2016-12-22T02:05:06.608Z,975.51
2016-12-22T02:06:15.306Z,975.61
2016-12-22T02:07:24.347Z,975.55
2016-12-22T02:08:33.040Z,975.63
2016-12-22T02:09:41.735Z,975.63
2016-12-22T02:10:50.436Z,975.73
2016-12-22T02:11:59.135Z,975.74
2016-12-22T02:13:07.833Z,975.77
2016-12-22T02:14:16.539Z,975.81
2016-12-22T02:15:25.233Z,975.87
2016-12-22T02:16:33.931Z,975.9
2016-12-22T02:17:42.627Z,975.87
2016-12-22T02:18:51.322Z,975.91
2016-12-22T02:20:00.017Z,975.91
2016-12-22T02:21:08.712Z,976.08
2016-12-22T02:22:17.415Z,975.95
2016-12-22T02:23:26.109Z,976.01
2016-12-22T02:24:34.805Z,976
2016-12-22T02:25:43.533Z,976.03
2016-12-22T02:26:52.228Z,975.95
2016-12-22T02:28:00.921Z,976.01
2016-12-22T02:29:09.620Z,975.97
2016-12-22T02:30:18.313Z,976
2016-12-22T02:31:27.011Z,976.04
2016-12-22T02:32:35.708Z,976.02
2016-12-22T02:33:44.410Z,976.03
2016-12-22T02:34:53.109Z,975.98
2016-12-22T02:36:01.804Z,975.98
2016-12-22T02:37:10.498Z,976.05
2016-12-22T02:38:19.195Z,976.02
2016-12-22T02:39:27.888Z,975.97
2016-12-22T02:40:36.582Z,976.05
2016-12-22T02:41:45.278Z,975.98
2016-12-22T02:42:53.981Z,975.93
2016-12-22T02:44:02.677Z,975.92
2016-12-22T02:45:11.410Z,976.03
2016-12-22T02:46:20.104Z,976
2016-12-22T02:47:28.803Z,976
2016-12-22T02:48:37.496Z,976.06
2016-12-22T02:49:46.196Z,976.01
2016-12-22T02:50:54.887Z,976.05
2016-12-22T02:52:03.585Z,976.07
2016-12-22T02:53:12.278Z,976.01
2016-12-22T02:54:21.000Z,976.02
2016-12-22T02:55:29.701Z,975.99
2016-12-22T02:56:38.398Z,975.99
2016-12-22T02:57:47.094Z,976.04
2016-12-22T02:58:55.793Z,975.96
2016-12-22T03:00:04.489Z,975.85
2016-12-22T03:01:13.207Z,975.95
2016-12-22T03:02:21.902Z,975.91
2016-12-22T03:03:30.596Z,975.93
2016-12-22T03:04:39.291Z,975.98
2016-12-22T03:05:47.991Z,975.94
2016-12-22T03:06:56.692Z,975.9
2016-12-22T03:08:05.387Z,975.89
2016-12-22T03:09:14.096Z,975.92
2016-12-22T03:10:22.793Z,975.91
2016-12-22T03:11:31.589Z,975.89
2016-12-22T03:12:40.290Z,975.94
2016-12-22T03:13:48.985Z,975.88
2016-12-22T03:14:57.680Z,975.88
2016-12-22T03:16:06.379Z,975.86
2016-12-22T03:17:15.076Z,975.98
2016-12-22T03:18:23.770Z,976
2016-12-22T03:19:32.466Z,975.96
2016-12-22T03:20:41.160Z,976
2016-12-22T03:21:49.855Z,976.03
2016-12-22T03:22:58.556Z,975.97
2016-12-22T03:24:07.266Z,975.97
2016-12-22T03:25:15.962Z,975.95
2016-12-22T03:26:24.658Z,976
2016-12-22T03:27:33.350Z,976.07
2016-12-22T03:28:42.047Z,976.06
2016-12-22T03:29:50.746Z,976
2016-12-22T03:30:59.444Z,976.06
2016-12-22T03:32:08.138Z,976.07
2016-12-22T03:33:16.844Z,976.06
2016-12-22T03:34:25.857Z,976.04
2016-12-22T03:35:34.554Z,976.1
2016-12-22T03:36:43.255Z,976.07
2016-12-22T03:37:51.948Z,976.12
2016-12-22T03:39:00.640Z,976.08
2016-12-22T03:40:09.335Z,976.14
2016-12-22T03:41:18.032Z,976.2
2016-12-22T03:42:26.734Z,976.18
2016-12-22T03:43:35.435Z,976.16
2016-12-22T03:44:44.128Z,976.1
2016-12-22T03:45:52.827Z,976.14
2016-12-22T03:47:01.521Z,976.2
2016-12-22T03:48:10.215Z,976.17
2016-12-22T03:49:18.914Z,976.21
2016-12-22T03:50:27.611Z,976.21
2016-12-22T03:51:36.307Z,976.25
2016-12-22T03:52:45.007Z,976.27
2016-12-22T03:53:53.702Z,976.28
2016-12-22T03:55:02.421Z,976.31
2016-12-22T03:56:11.123Z,976.26
2016-12-22T03:57:19.823Z,976.34
2016-12-22T03:58:28.519Z,976.35
2016-12-22T03:59:37.214Z,976.34
2016-12-22T04:00:45.910Z,976.41
2016-12-22T04:01:54.607Z,976.45
2016-12-22T04:03:03.302Z,976.37
2016-12-22T04:04:12.003Z,976.49
2016-12-22T04:05:20.698Z,976.41
2016-12-22T04:06:29.394Z,976.42
2016-12-22T04:07:38.092Z,976.47
2016-12-22T04:08:46.789Z,976.5
2016-12-22T04:09:55.485Z,976.52
2016-12-22T04:11:04.207Z,976.59
2016-12-22T04:12:12.903Z,976.55
2016-12-22T04:13:21.598Z,976.56
2016-12-22T04:14:30.293Z,976.56
2016-12-22T04:15:38.989Z,976.65
2016-12-22T04:16:47.684Z,976.71
2016-12-22T04:17:56.379Z,976.73
2016-12-22T04:19:05.085Z,976.78
2016-12-22T04:20:13.794Z,976.8
2016-12-22T04:21:22.491Z,976.81
2016-12-22T04:22:31.185Z,976.8
2016-12-22T04:23:40.201Z,976.88
2016-12-22T04:24:48.901Z,976.87
2016-12-22T04:25:57.594Z,976.85
2016-12-22T04:27:06.306Z,976.87
2016-12-22T04:28:15.001Z,976.83
2016-12-22T04:29:23.697Z,976.83
2016-12-22T04:30:32.391Z,976.82
2016-12-22T04:31:41.091Z,976.76
2016-12-22T04:32:49.794Z,976.77
2016-12-22T04:33:58.489Z,976.78
2016-12-22T04:35:07.189Z,976.78
2016-12-22T04:36:15.884Z,976.73
2016-12-22T04:37:24.587Z,976.7
2016-12-22T04:38:33.288Z,976.68
2016-12-22T04:39:41.994Z,976.69
2016-12-22T04:40:50.691Z,976.65
2016-12-22T04:41:59.388Z,976.64
2016-12-22T04:43:08.402Z,976.73
2016-12-22T04:44:17.098Z,976.74
2016-12-22T04:45:25.800Z,976.72
2016-12-22T04:46:34.496Z,976.71
2016-12-22T04:47:43.193Z,976.63
2016-12-22T04:48:51.886Z,976.73
2016-12-22T04:50:00.582Z,976.77
2016-12-22T04:51:09.309Z,976.77
2016-12-22T04:52:18.323Z,976.79
2016-12-22T04:53:27.021Z,976.8
2016-12-22T04:54:35.719Z,976.86
2016-12-22T04:55:44.415Z,976.82
2016-12-22T04:56:53.107Z,976.85
2016-12-22T04:58:01.803Z,976.86
2016-12-22T04:59:10.503Z,976.84
2016-12-22T05:00:19.211Z,976.94
2016-12-22T05:01:27.908Z,976.91
2016-12-22T05:02:36.600Z,976.98
2016-12-22T05:03:45.295Z,976.93
2016-12-22T05:04:53.989Z,977.02
2016-12-22T05:06:02.680Z,976.93
2016-12-22T05:07:11.373Z,976.98
2016-12-22T05:08:20.088Z,976.99
2016-12-22T05:09:28.786Z,976.96
2016-12-22T05:10:37.479Z,976.98
2016-12-22T05:11:46.176Z,976.89
2016-12-22T05:12:54.870Z,976.9
2016-12-22T05:14:03.565Z,976.87
2016-12-22T05:15:12.264Z,976.86
2016-12-22T05:16:20.961Z,976.85
2016-12-22T05:17:29.658Z,976.84
2016-12-22T05:18:38.356Z,976.83
2016-12-22T05:19:47.052Z,976.8
2016-12-22T05:20:55.748Z,976.82
2016-12-22T05:22:04.443Z,976.8
2016-12-22T05:23:13.150Z,976.76
2016-12-22T05:24:21.842Z,976.76
2016-12-22T05:25:30.536Z,976.74
2016-12-22T05:26:39.232Z,976.77
2016-12-22T05:27:47.925Z,976.74
2016-12-22T05:28:56.623Z,976.76
2016-12-22T05:30:05.320Z,976.76
2016-12-22T05:31:14.014Z,976.79
2016-12-22T05:32:22.711Z,976.78
2016-12-22T05:33:31.408Z,976.77
2016-12-22T05:34:40.160Z,976.77
2016-12-22T05:35:48.856Z,976.82
2016-12-22T05:36:57.551Z,976.83
2016-12-22T05:38:06.248Z,976.87
2016-12-22T05:39:14.951Z,976.85
2016-12-22T05:40:23.645Z,976.93
2016-12-22T05:41:32.342Z,976.86
2016-12-22T05:42:41.034Z,976.87
2016-12-22T05:43:49.731Z,976.92
2016-12-22T05:44:58.427Z,976.92
2016-12-22T05:46:07.123Z,976.89
2016-12-22T05:47:15.819Z,976.88
2016-12-22T05:48:24.513Z,976.83
2016-12-22T05:49:33.212Z,976.82
2016-12-22T05:50:41.913Z,976.86
2016-12-22T05:51:50.607Z,976.88
2016-12-22T05:52:59.303Z,976.88
2016-12-22T05:54:07.999Z,976.87
2016-12-22T05:55:16.692Z,976.93
2016-12-22T05:56:25.389Z,976.92
2016-12-22T05:57:34.083Z,976.95
2016-12-22T05:58:42.780Z,976.93
2016-12-22T05:59:51.481Z,976.96
2016-12-22T06:01:00.181Z,976.98
2016-12-22T06:02:08.878Z,976.99
2016-12-22T06:03:17.572Z,977
2016-12-22T06:04:26.265Z,977.09
2016-12-22T06:05:34.964Z,977.09
2016-12-22T06:06:43.665Z,977.07
2016-12-22T06:07:52.358Z,977.16
2016-12-22T06:09:01.052Z,977.21
2016-12-22T06:10:09.745Z,977.23
2016-12-22T06:11:18.449Z,977.31
2016-12-22T06:12:27.173Z,977.3
2016-12-22T06:13:35.866Z,977.31
2016-12-22T06:14:44.566Z,977.35
2016-12-22T06:15:53.260Z,977.44
2016-12-22T06:17:01.954Z,977.48
2016-12-22T06:18:10.646Z,977.53
2016-12-22T06:19:19.341Z,977.46
2016-12-22T06:20:28.033Z,977.45
2016-12-22T06:21:36.731Z,977.39
2016-12-22T06:22:45.432Z,977.41
2016-12-22T06:23:54.126Z,977.46
2016-12-22T06:25:02.834Z,977.55
2016-12-22T06:26:11.534Z,977.56
2016-12-22T06:27:20.235Z,977.53
2016-12-22T06:28:28.934Z,977.55
2016-12-22T06:29:37.630Z,977.51
2016-12-22T06:30:46.326Z,977.5
2016-12-22T06:31:55.022Z,977.46
2016-12-22T06:33:03.719Z,977.5
2016-12-22T06:34:12.416Z,977.54
2016-12-22T06:35:21.112Z,977.47
2016-12-22T06:36:29.812Z,977.54
2016-12-22T06:37:38.507Z,977.48
2016-12-22T06:38:47.205Z,977.56
2016-12-22T06:39:55.901Z,977.59
2016-12-22T06:41:04.601Z,977.57
2016-12-22T06:42:13.299Z,977.56
2016-12-22T06:43:21.998Z,977.5
2016-12-22T06:44:30.698Z,977.53
2016-12-22T06:45:39.399Z,977.48
2016-12-22T06:46:48.094Z,977.46
2016-12-22T06:47:56.787Z,977.45
2016-12-22T06:49:05.800Z,977.51
2016-12-22T06:50:14.503Z,977.54
2016-12-22T06:51:23.199Z,977.51
2016-12-22T06:52:31.895Z,977.57
2016-12-22T06:53:40.593Z,977.52
2016-12-22T06:54:49.301Z,977.51
2016-12-22T06:55:57.993Z,977.54
2016-12-22T06:57:06.694Z,977.54
2016-12-22T06:58:15.388Z,977.39
2016-12-22T06:59:24.112Z,977.45
2016-12-22T07:00:32.818Z,977.49
2016-12-22T07:01:41.515Z,977.52
2016-12-22T07:02:50.214Z,977.56
2016-12-22T07:03:58.909Z,977.49
2016-12-22T07:05:07.609Z,977.48
2016-12-22T07:06:16.306Z,977.55
2016-12-22T07:07:25.002Z,977.54
2016-12-22T07:08:33.698Z,977.55
2016-12-22T07:09:42.394Z,977.62
2016-12-22T07:10:51.091Z,977.59
2016-12-22T07:11:59.786Z,977.53
2016-12-22T07:13:08.800Z,977.5
2016-12-22T07:14:17.504Z,977.5
2016-12-22T07:15:26.200Z,977.45
2016-12-22T07:16:34.904Z,977.55
2016-12-22T07:17:43.599Z,977.57
2016-12-22T07:18:52.298Z,977.54
2016-12-22T07:20:00.998Z,977.6
2016-12-22T07:21:10.018Z,977.59
2016-12-22T07:22:18.755Z,977.59
2016-12-22T07:23:27.448Z,977.54
2016-12-22T07:24:36.172Z,977.53
2016-12-22T07:25:44.875Z,977.49
2016-12-22T07:26:53.887Z,977.47
2016-12-22T07:28:02.581Z,977.49
2016-12-22T07:29:11.279Z,977.55
2016-12-22T07:30:19.977Z,977.54
2016-12-22T07:31:29.003Z,977.61
2016-12-22T07:32:37.700Z,977.58
2016-12-22T07:33:46.405Z,977.62
2016-12-22T07:34:55.103Z,977.65
2016-12-22T07:36:03.802Z,977.67
2016-12-22T07:37:12.495Z,977.67
2016-12-22T07:38:21.190Z,977.74
2016-12-22T07:39:29.889Z,977.73
2016-12-22T07:40:38.585Z,977.68
2016-12-22T07:41:47.280Z,977.61
2016-12-22T07:42:55.980Z,977.62
2016-12-22T07:44:04.673Z,977.6
2016-12-22T07:45:13.364Z,977.67
2016-12-22T07:46:22.373Z,977.71
2016-12-22T07:47:31.706Z,977.69
2016-12-22T07:48:40.431Z,977.73
2016-12-22T07:49:49.129Z,977.77
2016-12-22T07:50:57.828Z,977.8
2016-12-22T07:52:06.522Z,977.81
2016-12-22T07:53:15.216Z,977.8
2016-12-22T07:54:23.914Z,977.85
2016-12-22T07:55:32.625Z,977.9
2016-12-22T07:56:41.318Z,977.83
2016-12-22T07:57:50.348Z,977.67
2016-12-22T07:58:59.045Z,977.75
2016-12-22T08:00:07.740Z,977.74
2016-12-22T08:01:16.436Z,977.64
2016-12-22T08:02:25.134Z,977.67
2016-12-22T08:03:33.828Z,977.71
2016-12-22T08:04:42.525Z,977.58
2016-12-22T08:05:51.221Z,977.59
2016-12-22T08:07:00.227Z,977.6
2016-12-22T08:08:08.922Z,977.59
2016-12-22T08:09:17.622Z,977.63
2016-12-22T08:10:26.319Z,977.54
2016-12-22T08:11:35.025Z,977.48
2016-12-22T08:12:43.720Z,977.47
2016-12-22T08:13:52.423Z,977.46
2016-12-22T08:15:01.784Z,977.5
2016-12-22T08:16:10.484Z,977.39
2016-12-22T08:17:19.183Z,977.3
2016-12-22T08:18:27.875Z,977.33
2016-12-22T08:19:36.927Z,977.32
2016-12-22T08:20:45.677Z,977.3
2016-12-22T08:21:54.370Z,977.28
2016-12-22T08:23:03.424Z,977.29
2016-12-22T08:24:12.123Z,977.35
2016-12-22T08:25:20.815Z,977.41
2016-12-22T08:26:29.516Z,977.42
2016-12-22T08:27:38.531Z,977.41
2016-12-22T08:28:47.240Z,977.39
2016-12-22T08:29:55.934Z,977.37
2016-12-22T08:31:04.661Z,977.31
2016-12-22T08:32:13.353Z,977.27
2016-12-22T08:33:22.053Z,977.25
2016-12-22T08:34:30.744Z,977.29
2016-12-22T08:35:39.755Z,977.35
2016-12-22T08:36:48.477Z,977.48
2016-12-22T08:37:57.171Z,977.5
2016-12-22T08:39:05.866Z,977.5
2016-12-22T08:40:14.565Z,977.51
2016-12-22T08:41:23.264Z,977.49
2016-12-22T08:42:31.962Z,977.54
2016-12-22T08:43:40.665Z,977.54
2016-12-22T08:44:49.375Z,977.56
2016-12-22T08:45:58.103Z,977.56
2016-12-22T08:47:06.805Z,977.5
2016-12-22T08:48:15.826Z,977.47
2016-12-22T08:49:24.525Z,977.51
2016-12-22T08:50:33.219Z,977.53
2016-12-22T08:51:41.918Z,977.53
2016-12-22T08:52:50.613Z,977.51
2016-12-22T08:53:59.311Z,977.58
2016-12-22T08:55:08.011Z,977.57
2016-12-22T08:56:16.707Z,977.58
2016-12-22T08:57:25.414Z,977.61
2016-12-22T08:58:34.111Z,977.59
2016-12-22T08:59:42.806Z,977.6
2016-12-22T09:00:51.502Z,977.61
2016-12-22T09:02:00.202Z,977.61
2016-12-22T09:03:08.896Z,977.6
2016-12-22T09:04:17.904Z,977.61
2016-12-22T09:05:26.598Z,977.6
2016-12-22T09:06:35.608Z,977.61
2016-12-22T09:07:44.623Z,977.55
2016-12-22T09:08:53.325Z,977.63
2016-12-22T09:10:02.026Z,977.59
2016-12-22T09:11:10.720Z,977.53
2016-12-22T09:12:19.417Z,977.54
2016-12-22T09:13:28.121Z,977.52
2016-12-22T09:14:36.817Z,977.56
2016-12-22T09:15:45.510Z,977.57
2016-12-22T09:16:54.206Z,977.6
2016-12-22T09:18:02.929Z,977.55
2016-12-22T09:23:12.757Z,977.46
2016-12-22T09:24:21.459Z,977.43
2016-12-22T09:25:30.155Z,977.4
2016-12-22T09:26:38.850Z,977.47
2016-12-22T09:27:47.549Z,977.45
2016-12-22T09:28:56.247Z,977.45
2016-12-22T09:30:04.946Z,977.49
2016-12-22T09:31:13.643Z,977.44
2016-12-22T09:32:22.341Z,977.42
2016-12-22T09:33:31.038Z,977.43
2016-12-22T09:34:39.737Z,977.44
2016-12-22T09:35:48.434Z,977.49
2016-12-22T09:36:57.166Z,977.41
2016-12-22T09:38:05.863Z,977.43
2016-12-22T09:39:14.559Z,977.37
2016-12-22T09:40:23.253Z,977.34
2016-12-22T09:41:31.976Z,977.32
2016-12-22T09:42:40.672Z,977.28
2016-12-22T09:43:49.402Z,977.2
2016-12-22T09:44:58.099Z,977.21
2016-12-22T09:46:06.795Z,977.16
2016-12-22T09:47:15.500Z,977.13
2016-12-22T09:48:24.196Z,977.07
2016-12-22T09:49:32.903Z,976.97
2016-12-22T09:50:41.598Z,977.01
2016-12-22T09:51:50.298Z,977.02
2016-12-22T09:52:58.993Z,976.98
2016-12-22T09:54:07.697Z,977.03
2016-12-22T09:55:16.420Z,977.01
2016-12-22T09:56:25.115Z,976.95
2016-12-22T09:57:33.815Z,976.89
2016-12-22T09:58:42.506Z,976.95
2016-12-22T09:59:51.200Z,976.98
2016-12-22T10:00:59.903Z,976.92
2016-12-22T10:02:08.609Z,976.8
2016-12-22T10:03:17.300Z,976.77
2016-12-22T10:04:26.001Z,976.76
2016-12-22T10:05:34.729Z,976.7
2016-12-22T10:06:43.424Z,976.73
2016-12-22T10:07:52.116Z,976.72
2016-12-22T10:09:00.816Z,976.75
2016-12-22T10:10:09.515Z,976.81
2016-12-22T10:11:18.211Z,976.83
2016-12-22T10:12:26.907Z,976.88
2016-12-22T10:13:35.604Z,976.92
2016-12-22T10:14:44.300Z,976.81
2016-12-22T10:15:52.997Z,976.86
2016-12-22T10:17:01.691Z,976.89
2016-12-22T10:18:10.387Z,976.95
2016-12-22T10:19:19.131Z,976.99
2016-12-22T10:20:27.828Z,977.02
2016-12-22T10:21:36.543Z,977
2016-12-22T10:22:45.238Z,976.98
2016-12-22T10:23:53.938Z,976.98
2016-12-22T10:25:02.636Z,976.89
2016-12-22T10:26:11.344Z,976.94
2016-12-22T10:27:20.042Z,976.91
2016-12-22T10:28:28.739Z,976.92
2016-12-22T10:29:37.435Z,976.91
2016-12-22T10:30:46.129Z,976.94
2016-12-22T10:31:54.838Z,976.99
2016-12-22T10:33:03.536Z,977.01
2016-12-22T10:34:12.239Z,976.96
2016-12-22T10:35:20.935Z,976.9
2016-12-22T10:36:29.629Z,976.86
2016-12-22T10:37:38.331Z,976.84
2016-12-22T10:38:47.032Z,976.83
2016-12-22T10:39:55.728Z,976.87
2016-12-22T10:41:04.423Z,976.89
2016-12-22T10:42:13.120Z,976.75
2016-12-22T10:43:21.815Z,976.75
2016-12-22T10:44:30.513Z,976.72
2016-12-22T10:45:39.211Z,976.74
2016-12-22T10:46:47.910Z,976.72
2016-12-22T10:47:56.611Z,976.69
2016-12-22T10:49:05.307Z,976.63
2016-12-22T10:50:14.006Z,976.6
2016-12-22T10:51:23.020Z,976.56
2016-12-22T10:52:31.722Z,976.54
2016-12-22T10:53:40.422Z,976.52
2016-12-22T10:54:49.122Z,976.51
2016-12-22T10:55:57.821Z,976.55
2016-12-22T10:57:06.518Z,976.51
2016-12-22T10:58:15.219Z,976.46
2016-12-22T10:59:23.922Z,976.46
2016-12-22T11:00:32.622Z,976.39
2016-12-22T11:01:41.358Z,976.48
2016-12-22T11:02:50.056Z,976.42
2016-12-22T11:03:58.753Z,976.41
2016-12-22T11:05:07.464Z,976.36
2016-12-22T11:06:16.174Z,976.31
2016-12-22T11:07:24.877Z,976.33
2016-12-22T11:08:33.578Z,976.23
2016-12-22T11:09:42.274Z,976.25
2016-12-22T11:10:50.974Z,976.21
2016-12-22T11:11:59.706Z,976.15
2016-12-22T11:13:08.408Z,976.14
2016-12-22T11:14:17.113Z,976.23
2016-12-22T11:15:25.817Z,976.22
2016-12-22T11:16:34.842Z,976.15
2016-12-22T11:17:43.540Z,976.07
2016-12-22T11:18:52.240Z,976.06
2016-12-22T11:20:00.941Z,976.01
2016-12-22T11:21:09.643Z,976.06
2016-12-22T11:22:18.344Z,976.04
2016-12-22T11:23:27.072Z,976.04
2016-12-22T11:24:35.774Z,976.07
2016-12-22T11:25:44.474Z,976.08
2016-12-22T11:26:53.173Z,976.09
2016-12-22T11:28:01.904Z,976.08
2016-12-22T11:29:10.707Z,976.15
2016-12-22T11:30:19.407Z,976.09
2016-12-22T11:31:28.109Z,976.22
2016-12-22T11:32:36.814Z,976.24
2016-12-22T11:33:45.516Z,976.26
2016-12-22T11:34:54.219Z,976.17
2016-12-22T11:36:02.960Z,976.19
2016-12-22T11:37:11.658Z,976.24
2016-12-22T11:38:20.389Z,976.22
2016-12-22T11:39:29.090Z,976.17
2016-12-22T11:40:37.814Z,976.11
2016-12-22T11:41:46.514Z,976.11
2016-12-22T11:42:55.245Z,976.05
2016-12-22T11:44:03.950Z,976.11
2016-12-22T11:45:12.658Z,976.06
2016-12-22T11:46:21.356Z,976.02
2016-12-22T11:47:30.056Z,976
2016-12-22T11:48:38.756Z,975.96
2016-12-22T11:49:47.455Z,975.94
2016-12-22T11:50:56.155Z,975.92
2016-12-22T11:52:04.857Z,975.89
2016-12-22T11:53:13.560Z,975.93
2016-12-22T11:54:22.261Z,975.9
2016-12-22T11:55:30.968Z,975.89
2016-12-22T11:56:39.669Z,975.84
2016-12-22T11:57:48.366Z,975.94
2016-12-22T11:58:57.069Z,975.87
2016-12-22T12:00:06.405Z,975.83
2016-12-22T12:01:15.106Z,975.76
2016-12-22T12:02:23.807Z,975.86
2016-12-22T12:03:32.507Z,975.74
2016-12-22T12:04:41.232Z,975.66
2016-12-22T12:05:49.933Z,975.72
2016-12-22T12:06:58.637Z,975.72
2016-12-22T12:08:07.336Z,975.62
2016-12-22T12:09:16.039Z,975.62
2016-12-22T12:10:24.752Z,975.67
2016-12-22T12:11:33.454Z,975.6
2016-12-22T12:12:42.154Z,975.65
2016-12-22T12:13:50.853Z,975.68
2016-12-22T12:14:59.552Z,975.64
2016-12-22T12:16:08.255Z,975.61
2016-12-22T12:17:17.271Z,975.64
2016-12-22T12:18:26.295Z,975.6
2016-12-22T12:19:34.991Z,975.52
2016-12-22T12:20:43.693Z,975.55
2016-12-22T12:21:52.389Z,975.54
2016-12-22T12:23:01.409Z,975.44
2016-12-22T12:24:10.113Z,975.51
2016-12-22T12:25:18.819Z,975.52
2016-12-22T12:26:27.519Z,975.51
2016-12-22T12:27:36.223Z,975.45
2016-12-22T12:28:44.923Z,975.42
2016-12-22T12:29:53.624Z,975.39
2016-12-22T12:31:02.327Z,975.42
2016-12-22T12:32:11.027Z,975.42
2016-12-22T12:33:19.729Z,975.37
2016-12-22T12:34:28.758Z,975.32
2016-12-22T12:35:37.458Z,975.3
2016-12-22T12:36:46.156Z,975.29
2016-12-22T12:37:54.856Z,975.32
2016-12-22T12:39:03.587Z,975.29
2016-12-22T12:40:12.289Z,975.35
2016-12-22T12:41:20.989Z,975.34
2016-12-22T12:42:29.688Z,975.28
2016-12-22T12:43:38.384Z,975.24
2016-12-22T12:44:47.121Z,975.3
2016-12-22T12:45:55.817Z,975.21
2016-12-22T12:47:04.518Z,975.22
2016-12-22T12:48:13.219Z,975.27
2016-12-22T12:49:21.918Z,975.33
2016-12-22T12:50:30.615Z,975.19
2016-12-22T12:51:39.314Z,975.19
2016-12-22T12:52:48.020Z,975.14
2016-12-22T12:53:56.719Z,975.22
2016-12-22T12:55:05.422Z,975.18
2016-12-22T12:56:14.137Z,975.11
2016-12-22T12:57:22.837Z,975.16
2016-12-22T12:58:31.537Z,975.11
2016-12-22T12:59:40.252Z,975.13
2016-12-22T13:00:48.955Z,975.07
2016-12-22T13:01:57.660Z,975.07
2016-12-22T13:03:06.675Z,974.99
2016-12-22T13:04:15.380Z,975.02
2016-12-22T13:05:24.073Z,974.9
2016-12-22T13:06:33.083Z,974.95
2016-12-22T13:07:41.779Z,974.99
2016-12-22T13:08:50.481Z,974.98
2016-12-22T13:09:59.179Z,974.95
2016-12-22T13:11:07.878Z,974.96
2016-12-22T13:12:16.571Z,974.98
2016-12-22T13:13:25.273Z,974.98
2016-12-22T13:14:33.969Z,974.97
2016-12-22T13:15:42.669Z,974.91
2016-12-22T13:16:51.393Z,974.88
2016-12-22T13:18:00.100Z,974.8
2016-12-22T13:19:08.804Z,974.87
2016-12-22T13:20:17.503Z,974.89
2016-12-22T13:21:26.201Z,974.88
2016-12-22T13:22:34.897Z,974.93
2016-12-22T13:23:43.594Z,974.94
2016-12-22T13:24:52.300Z,974.86
2016-12-22T13:26:00.995Z,974.8
2016-12-22T13:27:10.038Z,974.88
2016-12-22T13:28:18.737Z,974.89
2016-12-22T13:29:27.432Z,974.8
2016-12-22T13:30:36.127Z,974.84
2016-12-22T13:31:44.855Z,974.82
2016-12-22T13:32:53.554Z,974.83
2016-12-22T13:34:02.257Z,974.81
2016-12-22T13:35:10.953Z,974.77
2016-12-22T13:36:19.651Z,974.83
2016-12-22T13:37:28.371Z,974.75
2016-12-22T13:38:37.084Z,974.8
2016-12-22T13:39:45.816Z,974.75
2016-12-22T13:40:54.521Z,974.73
2016-12-22T13:42:03.221Z,974.76
2016-12-22T13:43:11.922Z,974.72
2016-12-22T13:44:20.620Z,974.67
2016-12-22T13:45:29.318Z,974.65
2016-12-22T13:46:38.018Z,974.62
2016-12-22T13:47:46.714Z,974.62
2016-12-22T13:48:55.413Z,974.62
2016-12-22T13:50:04.113Z,974.63
2016-12-22T13:51:12.807Z,974.57
2016-12-22T13:52:21.505Z,974.46
2016-12-22T13:53:30.205Z,974.46
2016-12-22T13:54:38.904Z,974.45
2016-12-22T13:55:47.603Z,974.49
2016-12-22T13:56:56.612Z,974.48
2016-12-22T13:58:05.363Z,974.49
2016-12-22T13:59:14.061Z,974.47
2016-12-22T14:00:22.763Z,974.55
2016-12-22T14:01:31.468Z,974.56
2016-12-22T14:02:40.165Z,974.67
2016-12-22T14:03:48.867Z,974.66
2016-12-22T14:04:57.563Z,974.68
2016-12-22T14:06:06.577Z,974.66
2016-12-22T14:07:15.277Z,974.69
2016-12-22T14:08:23.977Z,974.68
2016-12-22T14:09:32.675Z,974.71
2016-12-22T14:10:41.381Z,974.67
2016-12-22T14:11:50.079Z,974.67
2016-12-22T14:12:58.778Z,974.56
2016-12-22T14:14:07.478Z,974.58
2016-12-22T14:15:16.179Z,974.63
2016-12-22T14:16:24.878Z,974.55
2016-12-22T14:17:33.577Z,974.49
2016-12-22T14:18:42.278Z,974.46
2016-12-22T14:19:50.973Z,974.48
2016-12-22T14:20:59.669Z,974.49
2016-12-22T14:22:08.367Z,974.48
2016-12-22T14:23:17.063Z,974.4
2016-12-22T14:24:25.762Z,974.44